sensor_id;sensor_type;location;lat;lon;timestamp;P1;durP1;ratioP1;P2;durP2;ratioP2
48403;SDS011;34202;52.536;6.042;2023-04-29T00:04:43;43.50;;;27.60;;
48403;SDS011;34202;52.536;6.042;2023-04-29T00:09:44;56.00;;;35.50;;
48403;SDS011;34202;52.536;6.042;2023-04-29T00:14:44;50.60;;;32.90;;
48403;SDS011;34202;52.536;6.042;2023-04-29T00:19:44;55.10;;;33.70;;
48403;SDS011;34202;52.536;6.042;2023-04-29T00:24:45;55.40;;;35.80;;
48403;SDS011;34202;52.536;6.042;2023-04-29T00:29:45;47.40;;;31.70;;
48403;SDS011;34202;52.536;6.042;2023-04-29T00:34:46;55.80;;;33.60;;
48403;SDS011;34202;52.536;6.042;2023-04-29T00:39:47;54.30;;;32.10;;
48403;SDS011;34202;52.536;6.042;2023-04-29T00:44:48;48.40;;;32.60;;
48403;SDS011;34202;52.536;6.042;2023-04-29T00:49:48;56.70;;;34.40;;
48403;SDS011;34202;52.536;6.042;2023-04-29T00:54:49;48.80;;;31.00;;
48403;SDS011;34202;52.536;6.042;2023-04-29T00:59:51;50.90;;;32.90;;
48403;SDS011;34202;52.536;6.042;2023-04-29T01:04:51;49.00;;;34.90;;
48403;SDS011;34202;52.536;6.042;2023-04-29T01:09:54;59.40;;;32.70;;
48403;SDS011;34202;52.536;6.042;2023-04-29T01:20:21;48.40;;;31.40;;
48403;SDS011;34202;52.536;6.042;2023-04-29T01:25:23;38.40;;;28.10;;
48403;SDS011;34202;52.536;6.042;2023-04-29T01:41:29;38.50;;;24.10;;
48403;SDS011;34202;52.536;6.042;2023-04-29T01:46:53;32.30;;;21.50;;
48403;SDS011;34202;52.536;6.042;2023-04-29T01:51:55;30.30;;;22.10;;
48403;SDS011;34202;52.536;6.042;2023-04-29T01:56:56;34.60;;;22.90;;
48403;SDS011;34202;52.536;6.042;2023-04-29T02:01:57;31.50;;;20.80;;
48403;SDS011;34202;52.536;6.042;2023-04-29T02:06:58;30.60;;;21.20;;
48403;SDS011;34202;52.536;6.042;2023-04-29T02:11:58;33.90;;;20.40;;
48403;SDS011;34202;52.536;6.042;2023-04-29T02:16:59;28.00;;;18.00;;
48403;SDS011;34202;52.536;6.042;2023-04-29T02:21:59;35.10;;;20.80;;
48403;SDS011;34202;52.536;6.042;2023-04-29T02:27:00;29.50;;;19.20;;
48403;SDS011;34202;52.536;6.042;2023-04-29T02:32:04;23.40;;;16.90;;
48403;SDS011;34202;52.536;6.042;2023-04-29T02:37:05;30.10;;;19.90;;
48403;SDS011;34202;52.536;6.042;2023-04-29T02:42:06;29.40;;;19.60;;
48403;SDS011;34202;52.536;6.042;2023-04-29T02:47:06;32.30;;;20.40;;
48403;SDS011;34202;52.536;6.042;2023-04-29T02:52:07;33.00;;;20.40;;
48403;SDS011;34202;52.536;6.042;2023-04-29T02:57:08;33.90;;;19.70;;
48403;SDS011;34202;52.536;6.042;2023-04-29T03:02:08;30.30;;;20.10;;
48403;SDS011;34202;52.536;6.042;2023-04-29T03:07:08;37.20;;;21.10;;
48403;SDS011;34202;52.536;6.042;2023-04-29T03:12:09;29.70;;;20.40;;
48403;SDS011;34202;52.536;6.042;2023-04-29T03:17:10;28.40;;;19.30;;
48403;SDS011;34202;52.536;6.042;2023-04-29T03:22:11;24.20;;;17.50;;
48403;SDS011;34202;52.536;6.042;2023-04-29T03:27:11;29.90;;;19.30;;
48403;SDS011;34202;52.536;6.042;2023-04-29T03:32:11;26.70;;;17.40;;
48403;SDS011;34202;52.536;6.042;2023-04-29T03:37:12;30.00;;;19.90;;
48403;SDS011;34202;52.536;6.042;2023-04-29T03:42:12;27.10;;;18.40;;
48403;SDS011;34202;52.536;6.042;2023-04-29T03:47:13;39.40;;;21.10;;
48403;SDS011;34202;52.536;6.042;2023-04-29T03:52:13;32.90;;;20.40;;
48403;SDS011;34202;52.536;6.042;2023-04-29T03:57:15;25.60;;;18.30;;
48403;SDS011;34202;52.536;6.042;2023-04-29T04:02:15;26.10;;;19.00;;
48403;SDS011;34202;52.536;6.042;2023-04-29T04:07:16;25.90;;;19.20;;
48403;SDS011;34202;52.536;6.042;2023-04-29T04:12:16;29.30;;;19.00;;
48403;SDS011;34202;52.536;6.042;2023-04-29T04:17:16;27.70;;;17.90;;
48403;SDS011;34202;52.536;6.042;2023-04-29T04:22:17;30.10;;;18.90;;
48403;SDS011;34202;52.536;6.042;2023-04-29T04:27:18;25.80;;;18.30;;
48403;SDS011;34202;52.536;6.042;2023-04-29T04:32:18;41.90;;;19.50;;
48403;SDS011;34202;52.536;6.042;2023-04-29T04:37:18;27.50;;;18.80;;
48403;SDS011;34202;52.536;6.042;2023-04-29T04:42:18;30.90;;;19.40;;
48403;SDS011;34202;52.536;6.042;2023-04-29T04:47:19;28.50;;;20.10;;
48403;SDS011;34202;52.536;6.042;2023-04-29T04:52:19;38.60;;;19.70;;
48403;SDS011;34202;52.536;6.042;2023-04-29T04:57:20;33.50;;;20.50;;
48403;SDS011;34202;52.536;6.042;2023-04-29T05:02:21;30.60;;;20.80;;
48403;SDS011;34202;52.536;6.042;2023-04-29T05:07:21;25.70;;;17.30;;
48403;SDS011;34202;52.536;6.042;2023-04-29T05:12:22;38.10;;;20.00;;
48403;SDS011;34202;52.536;6.042;2023-04-29T05:17:24;31.70;;;18.70;;
48403;SDS011;34202;52.536;6.042;2023-04-29T05:22:24;31.00;;;18.40;;
48403;SDS011;34202;52.536;6.042;2023-04-29T05:27:25;29.70;;;17.80;;
48403;SDS011;34202;52.536;6.042;2023-04-29T05:32:25;25.70;;;16.90;;
48403;SDS011;34202;52.536;6.042;2023-04-29T05:37:26;25.60;;;16.70;;
48403;SDS011;34202;52.536;6.042;2023-04-29T05:42:29;28.40;;;18.00;;
48403;SDS011;34202;52.536;6.042;2023-04-29T05:47:30;25.90;;;17.40;;
48403;SDS011;34202;52.536;6.042;2023-04-29T05:52:30;28.70;;;18.20;;
48403;SDS011;34202;52.536;6.042;2023-04-29T05:57:30;30.50;;;18.80;;
48403;SDS011;34202;52.536;6.042;2023-04-29T06:02:31;30.30;;;20.60;;
48403;SDS011;34202;52.536;6.042;2023-04-29T06:07:32;31.70;;;20.00;;
48403;SDS011;34202;52.536;6.042;2023-04-29T06:12:32;30.90;;;20.20;;
48403;SDS011;34202;52.536;6.042;2023-04-29T06:17:33;39.20;;;22.60;;
48403;SDS011;34202;52.536;6.042;2023-04-29T06:22:33;44.30;;;24.40;;
48403;SDS011;34202;52.536;6.042;2023-04-29T06:27:34;39.80;;;22.40;;
48403;SDS011;34202;52.536;6.042;2023-04-29T06:32:34;41.60;;;24.30;;
48403;SDS011;34202;52.536;6.042;2023-04-29T06:37:34;45.20;;;26.60;;
48403;SDS011;34202;52.536;6.042;2023-04-29T06:42:35;34.60;;;18.40;;
48403;SDS011;34202;52.536;6.042;2023-04-29T06:47:36;26.50;;;14.20;;
48403;SDS011;34202;52.536;6.042;2023-04-29T06:52:36;25.00;;;14.00;;
48403;SDS011;34202;52.536;6.042;2023-04-29T06:57:37;23.40;;;13.90;;
48403;SDS011;34202;52.536;6.042;2023-04-29T07:02:37;18.10;;;11.20;;
48403;SDS011;34202;52.536;6.042;2023-04-29T07:07:37;16.60;;;11.50;;
48403;SDS011;34202;52.536;6.042;2023-04-29T07:12:38;16.40;;;10.30;;
48403;SDS011;34202;52.536;6.042;2023-04-29T07:17:38;17.60;;;11.00;;
48403;SDS011;34202;52.536;6.042;2023-04-29T07:22:39;14.70;;;11.10;;
48403;SDS011;34202;52.536;6.042;2023-04-29T07:27:39;20.70;;;10.40;;
48403;SDS011;34202;52.536;6.042;2023-04-29T07:32:40;12.50;;;9.20;;
48403;SDS011;34202;52.536;6.042;2023-04-29T07:37:41;15.00;;;9.80;;
48403;SDS011;34202;52.536;6.042;2023-04-29T07:42:42;14.70;;;10.30;;
48403;SDS011;34202;52.536;6.042;2023-04-29T07:47:43;17.00;;;10.10;;
48403;SDS011;34202;52.536;6.042;2023-04-29T07:52:44;16.90;;;9.40;;
48403;SDS011;34202;52.536;6.042;2023-04-29T07:57:44;12.50;;;9.60;;
48403;SDS011;34202;52.536;6.042;2023-04-29T08:02:45;14.90;;;10.30;;
48403;SDS011;34202;52.536;6.042;2023-04-29T08:07:48;11.80;;;8.30;;
48403;SDS011;34202;52.536;6.042;2023-04-29T08:12:49;10.80;;;8.70;;
48403;SDS011;34202;52.536;6.042;2023-04-29T08:17:50;10.50;;;8.10;;
48403;SDS011;34202;52.536;6.042;2023-04-29T08:22:50;12.60;;;7.40;;
48403;SDS011;34202;52.536;6.042;2023-04-29T08:27:51;10.70;;;7.10;;
48403;SDS011;34202;52.536;6.042;2023-04-29T08:32:51;13.60;;;7.60;;
48403;SDS011;34202;52.536;6.042;2023-04-29T08:37:52;10.00;;;7.70;;
48403;SDS011;34202;52.536;6.042;2023-04-29T08:42:52;10.50;;;6.50;;
48403;SDS011;34202;52.536;6.042;2023-04-29T08:47:54;15.80;;;7.70;;
48403;SDS011;34202;52.536;6.042;2023-04-29T08:52:56;12.50;;;8.10;;
48403;SDS011;34202;52.536;6.042;2023-04-29T08:57:56;15.60;;;8.40;;
48403;SDS011;34202;52.536;6.042;2023-04-29T09:02:57;8.60;;;7.20;;
48403;SDS011;34202;52.536;6.042;2023-04-29T09:07:59;8.80;;;6.40;;
48403;SDS011;34202;52.536;6.042;2023-04-29T09:13:02;9.60;;;6.60;;
48403;SDS011;34202;52.536;6.042;2023-04-29T09:18:02;11.00;;;6.70;;
48403;SDS011;34202;52.536;6.042;2023-04-29T09:23:03;9.70;;;6.20;;
48403;SDS011;34202;52.536;6.042;2023-04-29T09:28:16;10.30;;;5.90;;
48403;SDS011;34202;52.536;6.042;2023-04-29T09:33:16;12.30;;;6.80;;
48403;SDS011;34202;52.536;6.042;2023-04-29T09:38:16;10.10;;;5.90;;
48403;SDS011;34202;52.536;6.042;2023-04-29T09:43:17;9.10;;;6.20;;
48403;SDS011;34202;52.536;6.042;2023-04-29T09:48:18;14.60;;;7.70;;
48403;SDS011;34202;52.536;6.042;2023-04-29T09:53:26;11.60;;;6.50;;
48403;SDS011;34202;52.536;6.042;2023-04-29T09:58:32;10.80;;;6.80;;
48403;SDS011;34202;52.536;6.042;2023-04-29T10:03:36;8.50;;;5.90;;
48403;SDS011;34202;52.536;6.042;2023-04-29T10:08:37;10.00;;;5.60;;
48403;SDS011;34202;52.536;6.042;2023-04-29T10:13:41;14.00;;;6.50;;
48403;SDS011;34202;52.536;6.042;2023-04-29T10:18:43;8.30;;;6.60;;
48403;SDS011;34202;52.536;6.042;2023-04-29T10:23:51;8.70;;;5.80;;
48403;SDS011;34202;52.536;6.042;2023-04-29T10:28:56;8.20;;;5.20;;
48403;SDS011;34202;52.536;6.042;2023-04-29T10:33:59;10.10;;;5.40;;
48403;SDS011;34202;52.536;6.042;2023-04-29T10:39:01;8.40;;;4.80;;
48403;SDS011;34202;52.536;6.042;2023-04-29T10:44:03;8.90;;;5.80;;
48403;SDS011;34202;52.536;6.042;2023-04-29T10:49:04;8.20;;;4.80;;
48403;SDS011;34202;52.536;6.042;2023-04-29T10:59:12;8.30;;;4.80;;
48403;SDS011;34202;52.536;6.042;2023-04-29T11:04:15;8.10;;;5.20;;
48403;SDS011;34202;52.536;6.042;2023-04-29T11:09:23;11.50;;;4.80;;
48403;SDS011;34202;52.536;6.042;2023-04-29T11:14:29;10.90;;;5.20;;
48403;SDS011;34202;52.536;6.042;2023-04-29T11:19:31;7.10;;;4.50;;
48403;SDS011;34202;52.536;6.042;2023-04-29T11:24:33;6.50;;;4.40;;
48403;SDS011;34202;52.536;6.042;2023-04-29T11:29:35;8.10;;;4.30;;
48403;SDS011;34202;52.536;6.042;2023-04-29T11:34:36;9.00;;;3.80;;
48403;SDS011;34202;52.536;6.042;2023-04-29T11:39:36;7.10;;;5.00;;
48403;SDS011;34202;52.536;6.042;2023-04-29T11:44:36;6.60;;;3.80;;
48403;SDS011;34202;52.536;6.042;2023-04-29T11:49:37;9.10;;;4.60;;
48403;SDS011;34202;52.536;6.042;2023-04-29T11:54:37;6.00;;;4.60;;
48403;SDS011;34202;52.536;6.042;2023-04-29T11:59:41;9.20;;;4.70;;
48403;SDS011;34202;52.536;6.042;2023-04-29T12:04:45;7.50;;;4.10;;
48403;SDS011;34202;52.536;6.042;2023-04-29T12:09:46;8.50;;;5.10;;
48403;SDS011;34202;52.536;6.042;2023-04-29T12:14:46;6.40;;;4.60;;
48403;SDS011;34202;52.536;6.042;2023-04-29T12:19:47;5.50;;;3.50;;
48403;SDS011;34202;52.536;6.042;2023-04-29T12:24:48;8.70;;;5.30;;
48403;SDS011;34202;52.536;6.042;2023-04-29T12:29:53;8.00;;;4.00;;
48403;SDS011;34202;52.536;6.042;2023-04-29T12:34:53;7.10;;;4.60;;
48403;SDS011;34202;52.536;6.042;2023-04-29T12:39:54;5.10;;;3.90;;
48403;SDS011;34202;52.536;6.042;2023-04-29T12:44:55;6.50;;;4.50;;
48403;SDS011;34202;52.536;6.042;2023-04-29T12:49:55;8.50;;;3.90;;
48403;SDS011;34202;52.536;6.042;2023-04-29T12:54:56;6.10;;;4.30;;
48403;SDS011;34202;52.536;6.042;2023-04-29T12:59:57;6.10;;;3.70;;
48403;SDS011;34202;52.536;6.042;2023-04-29T13:04:57;4.60;;;2.90;;
48403;SDS011;34202;52.536;6.042;2023-04-29T13:09:57;4.60;;;2.90;;
48403;SDS011;34202;52.536;6.042;2023-04-29T13:14:58;7.10;;;4.00;;
48403;SDS011;34202;52.536;6.042;2023-04-29T13:19:58;7.10;;;3.90;;
48403;SDS011;34202;52.536;6.042;2023-04-29T13:24:58;7.00;;;4.50;;
48403;SDS011;34202;52.536;6.042;2023-04-29T13:29:59;5.90;;;3.20;;
48403;SDS011;34202;52.536;6.042;2023-04-29T13:34:59;6.80;;;3.60;;
48403;SDS011;34202;52.536;6.042;2023-04-29T13:40:00;7.70;;;3.70;;
48403;SDS011;34202;52.536;6.042;2023-04-29T13:45:00;6.00;;;3.30;;
48403;SDS011;34202;52.536;6.042;2023-04-29T13:50:02;9.10;;;2.70;;
48403;SDS011;34202;52.536;6.042;2023-04-29T13:55:03;4.60;;;2.70;;
48403;SDS011;34202;52.536;6.042;2023-04-29T14:00:04;11.00;;;3.00;;
48403;SDS011;34202;52.536;6.042;2023-04-29T14:05:08;5.60;;;2.40;;
48403;SDS011;34202;52.536;6.042;2023-04-29T14:10:09;4.80;;;2.20;;
48403;SDS011;34202;52.536;6.042;2023-04-29T14:15:10;3.60;;;2.30;;
48403;SDS011;34202;52.536;6.042;2023-04-29T14:20:11;5.00;;;2.20;;
48403;SDS011;34202;52.536;6.042;2023-04-29T14:25:12;4.20;;;2.30;;
48403;SDS011;34202;52.536;6.042;2023-04-29T14:30:12;3.70;;;1.60;;
48403;SDS011;34202;52.536;6.042;2023-04-29T14:35:12;5.90;;;2.90;;
48403;SDS011;34202;52.536;6.042;2023-04-29T14:40:14;2.40;;;1.70;;
48403;SDS011;34202;52.536;6.042;2023-04-29T14:45:14;4.40;;;1.80;;
48403;SDS011;34202;52.536;6.042;2023-04-29T14:50:16;6.40;;;2.90;;
48403;SDS011;34202;52.536;6.042;2023-04-29T14:55:17;3.60;;;2.20;;
48403;SDS011;34202;52.536;6.042;2023-04-29T15:00:17;5.70;;;1.80;;
48403;SDS011;34202;52.536;6.042;2023-04-29T15:05:18;3.30;;;1.70;;
48403;SDS011;34202;52.536;6.042;2023-04-29T15:10:18;3.60;;;1.60;;
48403;SDS011;34202;52.536;6.042;2023-04-29T15:15:19;5.60;;;1.70;;
48403;SDS011;34202;52.536;6.042;2023-04-29T15:20:20;1.90;;;1.40;;
48403;SDS011;34202;52.536;6.042;2023-04-29T15:25:21;4.90;;;1.80;;
48403;SDS011;34202;52.536;6.042;2023-04-29T15:30:21;4.20;;;2.00;;
48403;SDS011;34202;52.536;6.042;2023-04-29T15:35:22;5.20;;;2.20;;
48403;SDS011;34202;52.536;6.042;2023-04-29T15:40:22;3.00;;;1.90;;
48403;SDS011;34202;52.536;6.042;2023-04-29T15:45:22;6.00;;;1.80;;
48403;SDS011;34202;52.536;6.042;2023-04-29T15:50:23;3.70;;;1.80;;
48403;SDS011;34202;52.536;6.042;2023-04-29T15:55:23;2.10;;;1.50;;
48403;SDS011;34202;52.536;6.042;2023-04-29T16:00:24;2.60;;;1.70;;
48403;SDS011;34202;52.536;6.042;2023-04-29T16:05:24;1.80;;;1.50;;
48403;SDS011;34202;52.536;6.042;2023-04-29T16:10:25;3.80;;;1.20;;
48403;SDS011;34202;52.536;6.042;2023-04-29T16:15:26;3.40;;;1.70;;
48403;SDS011;34202;52.536;6.042;2023-04-29T16:20:27;3.60;;;2.10;;
48403;SDS011;34202;52.536;6.042;2023-04-29T16:25:28;3.20;;;1.40;;
48403;SDS011;34202;52.536;6.042;2023-04-29T16:30:28;3.60;;;1.40;;
48403;SDS011;34202;52.536;6.042;2023-04-29T16:35:28;1.50;;;1.20;;
48403;SDS011;34202;52.536;6.042;2023-04-29T16:40:29;2.70;;;1.70;;
48403;SDS011;34202;52.536;6.042;2023-04-29T16:45:30;3.30;;;2.00;;
48403;SDS011;34202;52.536;6.042;2023-04-29T16:50:30;3.50;;;1.70;;
48403;SDS011;34202;52.536;6.042;2023-04-29T16:55:31;5.00;;;2.10;;
48403;SDS011;34202;52.536;6.042;2023-04-29T17:00:32;7.00;;;2.60;;
48403;SDS011;34202;52.536;6.042;2023-04-29T17:05:32;6.70;;;4.10;;
48403;SDS011;34202;52.536;6.042;2023-04-29T17:10:33;5.10;;;3.40;;
48403;SDS011;34202;52.536;6.042;2023-04-29T17:15:33;5.00;;;3.30;;
48403;SDS011;34202;52.536;6.042;2023-04-29T17:20:34;6.20;;;3.50;;
48403;SDS011;34202;52.536;6.042;2023-04-29T17:25:35;7.90;;;4.00;;
48403;SDS011;34202;52.536;6.042;2023-04-29T17:30:37;7.70;;;4.70;;
48403;SDS011;34202;52.536;6.042;2023-04-29T17:35:38;9.50;;;4.60;;
48403;SDS011;34202;52.536;6.042;2023-04-29T17:40:38;8.40;;;5.50;;
48403;SDS011;34202;52.536;6.042;2023-04-29T17:45:38;9.90;;;5.10;;
48403;SDS011;34202;52.536;6.042;2023-04-29T17:50:39;10.40;;;5.50;;
48403;SDS011;34202;52.536;6.042;2023-04-29T17:55:40;7.80;;;5.30;;
48403;SDS011;34202;52.536;6.042;2023-04-29T18:00:42;7.80;;;5.90;;
48403;SDS011;34202;52.536;6.042;2023-04-29T18:05:44;7.00;;;5.20;;
48403;SDS011;34202;52.536;6.042;2023-04-29T18:10:46;8.70;;;5.00;;
48403;SDS011;34202;52.536;6.042;2023-04-29T18:15:46;14.60;;;6.40;;
48403;SDS011;34202;52.536;6.042;2023-04-29T18:20:47;14.60;;;5.80;;
48403;SDS011;34202;52.536;6.042;2023-04-29T18:25:48;7.80;;;5.50;;
48403;SDS011;34202;52.536;6.042;2023-04-29T18:30:48;12.40;;;7.50;;
48403;SDS011;34202;52.536;6.042;2023-04-29T18:35:49;7.40;;;6.20;;
48403;SDS011;34202;52.536;6.042;2023-04-29T18:40:50;9.60;;;5.90;;
48403;SDS011;34202;52.536;6.042;2023-04-29T18:45:50;11.80;;;6.60;;
48403;SDS011;34202;52.536;6.042;2023-04-29T18:50:51;7.90;;;5.90;;
48403;SDS011;34202;52.536;6.042;2023-04-29T18:55:52;10.60;;;5.70;;
48403;SDS011;34202;52.536;6.042;2023-04-29T19:00:52;9.00;;;6.40;;
48403;SDS011;34202;52.536;6.042;2023-04-29T19:05:53;7.40;;;5.60;;
48403;SDS011;34202;52.536;6.042;2023-04-29T19:10:54;11.30;;;6.00;;
48403;SDS011;34202;52.536;6.042;2023-04-29T19:15:55;10.50;;;7.20;;
48403;SDS011;34202;52.536;6.042;2023-04-29T19:20:55;11.70;;;7.10;;
48403;SDS011;34202;52.536;6.042;2023-04-29T19:25:55;8.80;;;5.60;;
48403;SDS011;34202;52.536;6.042;2023-04-29T19:30:56;8.00;;;6.00;;
48403;SDS011;34202;52.536;6.042;2023-04-29T19:35:56;14.90;;;6.70;;
48403;SDS011;34202;52.536;6.042;2023-04-29T19:40:56;11.90;;;6.40;;
48403;SDS011;34202;52.536;6.042;2023-04-29T19:45:57;9.00;;;5.90;;
48403;SDS011;34202;52.536;6.042;2023-04-29T19:50:57;10.60;;;6.30;;
48403;SDS011;34202;52.536;6.042;2023-04-29T19:55:58;6.70;;;5.10;;
48403;SDS011;34202;52.536;6.042;2023-04-29T20:00:59;7.70;;;6.10;;
48403;SDS011;34202;52.536;6.042;2023-04-29T20:05:59;12.20;;;6.30;;
48403;SDS011;34202;52.536;6.042;2023-04-29T20:10:59;8.60;;;6.00;;
48403;SDS011;34202;52.536;6.042;2023-04-29T20:16:01;9.00;;;6.00;;
48403;SDS011;34202;52.536;6.042;2023-04-29T20:21:02;10.00;;;6.40;;
48403;SDS011;34202;52.536;6.042;2023-04-29T20:26:02;8.10;;;6.30;;
48403;SDS011;34202;52.536;6.042;2023-04-29T20:31:03;6.60;;;4.80;;
48403;SDS011;34202;52.536;6.042;2023-04-29T20:36:03;8.20;;;5.50;;
48403;SDS011;34202;52.536;6.042;2023-04-29T20:41:05;12.80;;;8.80;;
48403;SDS011;34202;52.536;6.042;2023-04-29T20:46:06;25.00;;;13.90;;
48403;SDS011;34202;52.536;6.042;2023-04-29T20:51:07;22.20;;;15.70;;
48403;SDS011;34202;52.536;6.042;2023-04-29T20:56:09;19.90;;;13.50;;
48403;SDS011;34202;52.536;6.042;2023-04-29T21:01:10;17.70;;;12.70;;
48403;SDS011;34202;52.536;6.042;2023-04-29T21:06:10;17.70;;;10.60;;
48403;SDS011;34202;52.536;6.042;2023-04-29T21:11:10;13.70;;;7.80;;
48403;SDS011;34202;52.536;6.042;2023-04-29T21:16:11;8.30;;;6.30;;
48403;SDS011;34202;52.536;6.042;2023-04-29T21:21:11;12.40;;;8.00;;
48403;SDS011;34202;52.536;6.042;2023-04-29T21:26:12;10.90;;;6.40;;
48403;SDS011;34202;52.536;6.042;2023-04-29T21:31:14;9.80;;;6.10;;
48403;SDS011;34202;52.536;6.042;2023-04-29T21:36:15;9.00;;;6.00;;
48403;SDS011;34202;52.536;6.042;2023-04-29T21:41:16;10.20;;;6.50;;
48403;SDS011;34202;52.536;6.042;2023-04-29T21:46:19;10.00;;;5.60;;
48403;SDS011;34202;52.536;6.042;2023-04-29T21:51:20;9.60;;;6.00;;
48403;SDS011;34202;52.536;6.042;2023-04-29T21:56:21;7.80;;;6.00;;
48403;SDS011;34202;52.536;6.042;2023-04-29T22:01:23;8.60;;;5.60;;
48403;SDS011;34202;52.536;6.042;2023-04-29T22:06:59;8.10;;;5.50;;
48403;SDS011;34202;52.536;6.042;2023-04-29T22:12:00;8.80;;;5.00;;
48403;SDS011;34202;52.536;6.042;2023-04-29T22:17:02;7.40;;;5.00;;
48403;SDS011;34202;52.536;6.042;2023-04-29T22:22:02;8.10;;;6.00;;
48403;SDS011;34202;52.536;6.042;2023-04-29T22:27:03;10.10;;;5.20;;
48403;SDS011;34202;52.536;6.042;2023-04-29T22:32:03;6.00;;;5.40;;
48403;SDS011;34202;52.536;6.042;2023-04-29T22:37:04;8.10;;;5.50;;
48403;SDS011;34202;52.536;6.042;2023-04-29T22:42:05;7.90;;;6.30;;
48403;SDS011;34202;52.536;6.042;2023-04-29T22:47:06;9.20;;;5.00;;
48403;SDS011;34202;52.536;6.042;2023-04-29T22:52:06;10.00;;;5.70;;
48403;SDS011;34202;52.536;6.042;2023-04-29T22:57:06;14.30;;;7.50;;
48403;SDS011;34202;52.536;6.042;2023-04-29T23:02:07;7.70;;;5.40;;
48403;SDS011;34202;52.536;6.042;2023-04-29T23:07:07;10.10;;;5.70;;
48403;SDS011;34202;52.536;6.042;2023-04-29T23:12:08;6.70;;;5.00;;
48403;SDS011;34202;52.536;6.042;2023-04-29T23:17:08;7.80;;;4.40;;
48403;SDS011;34202;52.536;6.042;2023-04-29T23:22:09;4.90;;;3.80;;
48403;SDS011;34202;52.536;6.042;2023-04-29T23:27:10;7.80;;;4.90;;
48403;SDS011;34202;52.536;6.042;2023-04-29T23:32:10;6.10;;;3.90;;
48403;SDS011;34202;52.536;6.042;2023-04-29T23:37:10;5.90;;;4.40;;
48403;SDS011;34202;52.536;6.042;2023-04-29T23:42:11;8.10;;;4.60;;
48403;SDS011;34202;52.536;6.042;2023-04-29T23:47:11;5.50;;;4.30;;
48403;SDS011;34202;52.536;6.042;2023-04-29T23:52:12;8.30;;;4.50;;
48403;SDS011;34202;52.536;6.042;2023-04-29T23:57:12;5.90;;;4.20;;
